OYATS EDDG-EDDG
Flight info
| Callsign | OYATS |
|---|---|
| Flight time | 0h 7m |
| Altitude | 0 |
| Route | |
| Aircraft |
Departure
| Time | 2026-05-07 16:46 |
|---|---|
| Airport | Münster Osnabrück Airport (EDDG) |
Arrival
| Time | 2026-05-07 16:54 |
|---|---|
| Airport | Münster Osnabrück Airport (EDDG) |
| Time | Latitude | Longitude | Altitude | Speed | Heading |
|---|---|---|---|---|---|
| 2026-05-07 16:46 | 52.13872 | 7.62380 | 1255 ft | 92 kts | 171° |
| 2026-05-07 16:46 | 52.13451 | 7.63021 | 1000 ft | 92 kts | 95° |
| 2026-05-07 16:46 | 52.13120 | 7.63759 | 963 ft | 78 kts | 142° |
| 2026-05-07 16:47 | 52.12810 | 7.64415 | 824 ft | 77 kts | 110° |
| 2026-05-07 16:47 | 52.12790 | 7.65278 | 586 ft | 74 kts | 76° |
| 2026-05-07 16:47 | 52.12941 | 7.66037 | 393 ft | 71 kts | 71° |
| 2026-05-07 16:47 | 52.13100 | 7.66767 | 234 ft | 65 kts | 70° |
| 2026-05-07 16:48 | 52.13235 | 7.67403 | 158 ft | 52 kts | 71° |
| 2026-05-07 16:48 | 52.13369 | 7.68048 | 183 ft | 74 kts | 70° |
| 2026-05-07 16:48 | 52.13552 | 7.68921 | 258 ft | 86 kts | 68° |
| 2026-05-07 16:48 | 52.13773 | 7.69855 | 331 ft | 91 kts | 70° |
| 2026-05-07 16:49 | 52.13963 | 7.70842 | 431 ft | 92 kts | 70° |
| 2026-05-07 16:49 | 52.14189 | 7.71788 | 547 ft | 89 kts | 50° |
| 2026-05-07 16:49 | 52.14788 | 7.71804 | 591 ft | 96 kts | 339° |
| 2026-05-07 16:49 | 52.15375 | 7.71390 | 711 ft | 89 kts | 339° |
| 2026-05-07 16:50 | 52.15953 | 7.70977 | 746 ft | 95 kts | 339° |
| 2026-05-07 16:50 | 52.16193 | 7.70043 | 613 ft | 116 kts | 252° |
| 2026-05-07 16:50 | 52.15960 | 7.68902 | 770 ft | 102 kts | 250° |
| 2026-05-07 16:50 | 52.15727 | 7.67801 | 806 ft | 103 kts | 250° |
| 2026-05-07 16:51 | 52.15487 | 7.66715 | 860 ft | 103 kts | 247° |
| 2026-05-07 16:51 | 52.15236 | 7.65584 | 876 ft | 106 kts | 250° |
| 2026-05-07 16:51 | 52.14997 | 7.64431 | 918 ft | 107 kts | 251° |
| 2026-05-07 16:51 | 52.14770 | 7.63285 | 966 ft | 106 kts | 248° |
| 2026-05-07 16:52 | 52.14200 | 7.62787 | 937 ft | 105 kts | 160° |
| 2026-05-07 16:52 | 52.13565 | 7.63044 | 1127 ft | 80 kts | 165° |
| 2026-05-07 16:52 | 52.13026 | 7.63266 | 1055 ft | 80 kts | 142° |
| 2026-05-07 16:52 | 52.12782 | 7.64019 | 862 ft | 79 kts | 109° |
| 2026-05-07 16:53 | 52.12735 | 7.64886 | 591 ft | 79 kts | 71° |
| 2026-05-07 16:53 | 52.12869 | 7.65718 | 415 ft | 73 kts | 80° |
| 2026-05-07 16:53 | 52.13033 | 7.66433 | 286 ft | 65 kts | 70° |
| 2026-05-07 16:53 | 52.13165 | 7.67108 | 177 ft | 61 kts | 64° |
| 2026-05-07 16:54 | 52.13293 | 7.67672 | 159 ft | 49 kts | 67° |
| 2026-05-07 16:54 | 52.13437 | 7.68406 | 221 ft | 78 kts | 66° |
| 2026-05-07 16:54 | 52.13620 | 7.69235 | 321 ft | 77 kts | 68° |
| 2026-05-07 16:54 | 52.13817 | 7.70065 | 409 ft | 81 kts | 65° |
| 2026-05-07 16:55 | 52.14035 | 7.70890 | 584 ft | 80 kts | 65° |
| 2026-05-07 16:55 | 52.14281 | 7.71633 | 741 ft | 72 kts | 42° |
| 2026-05-07 16:55 | 52.14796 | 7.71587 | 728 ft | 87 kts | 337° |
| 2026-05-07 16:55 | 52.15341 | 7.71187 | 803 ft | 87 kts | 342° |
| 2026-05-07 16:56 | 52.15923 | 7.70840 | 825 ft | 92 kts | 343° |
| 2026-05-07 16:56 | 52.16508 | 7.70488 | 913 ft | 87 kts | 332° |
| 2026-05-07 16:56 | 52.16611 | 7.68478 | 874 ft | 96 kts | 254° |
| 2026-05-07 16:57 | 52.16415 | 7.67417 | 839 ft | 100 kts | 251° |
| 2026-05-07 16:57 | 52.16211 | 7.66332 | 827 ft | 100 kts | 249° |
| 2026-05-07 16:57 | 52.15995 | 7.65273 | 844 ft | 97 kts | 252° |
| 2026-05-07 16:57 | 52.15765 | 7.64225 | 844 ft | 97 kts | 248° |
| 2026-05-07 16:58 | 52.15541 | 7.63186 | 849 ft | 97 kts | 253° |
| 2026-05-07 16:58 | 52.15105 | 7.62474 | 833 ft | 96 kts | 185° |
| 2026-05-07 16:58 | 52.14444 | 7.62636 | 811 ft | 93 kts | 161° |
| 2026-05-07 16:58 | 52.13844 | 7.62868 | 867 ft | 87 kts | 161° |
| 2026-05-07 16:59 | 52.13273 | 7.63146 | 942 ft | 74 kts | 149° |
| 2026-05-07 16:59 | 52.13042 | 7.63824 | 783 ft | 74 kts | 112° |
| 2026-05-07 16:59 | 52.12741 | 7.64491 | 670 ft | 64 kts | 103° |
| 2026-05-07 16:59 | 52.12771 | 7.65234 | 475 ft | 67 kts | 69° |
| 2026-05-07 17:00 | 52.12912 | 7.65917 | 364 ft | 62 kts | 68° |
| 2026-05-07 17:00 | 52.13060 | 7.66557 | 245 ft | 59 kts | 71° |
| 2026-05-07 17:00 | 52.13187 | 7.67192 | 169 ft | 55 kts | 64° |
| 2026-05-07 17:00 | 52.13314 | 7.67727 | 159 ft | 62 kts | 72° |
| 2026-05-07 17:01 | 52.13481 | 7.68557 | 222 ft | 87 kts | 66° |
| 2026-05-07 17:01 | 52.13634 | 7.69506 | 415 ft | 87 kts | 90° |
| 2026-05-07 17:01 | 52.13241 | 7.70226 | 548 ft | 98 kts | 169° |
| 2026-05-07 17:01 | 52.12544 | 7.70194 | 688 ft | 101 kts | 178° |
| 2026-05-07 17:02 | 52.11871 | 7.70105 | 854 ft | 97 kts | 179° |
| 2026-05-07 17:02 | 52.11185 | 7.70003 | 948 ft | 99 kts | 182° |
| 2026-05-07 17:02 | 52.10496 | 7.69825 | 1043 ft | 101 kts | 185° |
| 2026-05-07 17:02 | 52.09789 | 7.69662 | 1110 ft | 104 kts | 182° |
| 2026-05-07 17:03 | 52.09046 | 7.69491 | 1140 ft | 109 kts | 182° |
| 2026-05-07 17:03 | 52.08328 | 7.69316 | 1277 ft | 103 kts | 185° |
| 2026-05-07 17:03 | 52.07600 | 7.69109 | 1285 ft | 108 kts | 187° |
| 2026-05-07 17:03 | 52.06841 | 7.68930 | 1260 ft | 113 kts | 182° |
| 2026-05-07 17:04 | 52.06074 | 7.68746 | 1278 ft | 111 kts | 184° |
| 2026-05-07 17:04 | 52.05309 | 7.68545 | 1239 ft | 113 kts | 186° |
| 2026-05-07 17:04 | 52.04519 | 7.68293 | 1177 ft | 116 kts | 188° |
| 2026-05-07 17:04 | 52.03741 | 7.68018 | 1181 ft | 112 kts | 189° |